sensor_id;sensor_type;location;lat;lon;timestamp;P1;durP1;ratioP1;P2;durP2;ratioP2
16813;SDS011;8524;57.650;11.926;2023-07-29T00:01:42;3.20;;;2.90;;
16813;SDS011;8524;57.650;11.926;2023-07-29T00:04:11;2.93;;;2.67;;
16813;SDS011;8524;57.650;11.926;2023-07-29T00:06:38;2.73;;;2.53;;
16813;SDS011;8524;57.650;11.926;2023-07-29T00:09:05;3.17;;;2.87;;
16813;SDS011;8524;57.650;11.926;2023-07-29T00:11:32;2.60;;;2.40;;
16813;SDS011;8524;57.650;11.926;2023-07-29T00:14:00;2.90;;;2.70;;
16813;SDS011;8524;57.650;11.926;2023-07-29T00:16:27;3.00;;;2.67;;
16813;SDS011;8524;57.650;11.926;2023-07-29T00:18:54;2.83;;;2.63;;
16813;SDS011;8524;57.650;11.926;2023-07-29T00:21:22;3.27;;;2.80;;
16813;SDS011;8524;57.650;11.926;2023-07-29T00:23:49;3.03;;;2.70;;
16813;SDS011;8524;57.650;11.926;2023-07-29T00:26:17;2.90;;;2.70;;
16813;SDS011;8524;57.650;11.926;2023-07-29T00:28:43;3.37;;;3.00;;
16813;SDS011;8524;57.650;11.926;2023-07-29T00:31:10;3.78;;;3.00;;
16813;SDS011;8524;57.650;11.926;2023-07-29T00:33:37;3.80;;;3.13;;
16813;SDS011;8524;57.650;11.926;2023-07-29T00:36:04;3.93;;;3.30;;
16813;SDS011;8524;57.650;11.926;2023-07-29T00:38:33;5.00;;;3.30;;
16813;SDS011;8524;57.650;11.926;2023-07-29T00:41:00;4.63;;;3.00;;
16813;SDS011;8524;57.650;11.926;2023-07-29T00:43:28;3.77;;;3.10;;
16813;SDS011;8524;57.650;11.926;2023-07-29T00:45:55;3.73;;;3.03;;
16813;SDS011;8524;57.650;11.926;2023-07-29T00:48:23;5.00;;;4.13;;
16813;SDS011;8524;57.650;11.926;2023-07-29T00:50:50;5.80;;;4.00;;
16813;SDS011;8524;57.650;11.926;2023-07-29T00:53:18;4.13;;;3.57;;
16813;SDS011;8524;57.650;11.926;2023-07-29T00:55:46;4.63;;;4.10;;
16813;SDS011;8524;57.650;11.926;2023-07-29T00:58:13;5.57;;;4.37;;
16813;SDS011;8524;57.650;11.926;2023-07-29T01:00:40;5.17;;;4.30;;
16813;SDS011;8524;57.650;11.926;2023-07-29T01:03:08;5.70;;;4.10;;
16813;SDS011;8524;57.650;11.926;2023-07-29T01:05:36;5.77;;;4.00;;
16813;SDS011;8524;57.650;11.926;2023-07-29T01:08:10;5.60;;;4.20;;
16813;SDS011;8524;57.650;11.926;2023-07-29T01:10:50;5.57;;;3.83;;
16813;SDS011;8524;57.650;11.926;2023-07-29T01:13:26;5.00;;;3.73;;
16813;SDS011;8524;57.650;11.926;2023-07-29T01:16:02;6.03;;;3.70;;
16813;SDS011;8524;57.650;11.926;2023-07-29T01:18:35;5.87;;;4.00;;
16813;SDS011;8524;57.650;11.926;2023-07-29T01:21:07;4.80;;;3.53;;
16813;SDS011;8524;57.650;11.926;2023-07-29T01:23:37;4.27;;;3.50;;
16813;SDS011;8524;57.650;11.926;2023-07-29T01:26:04;4.50;;;4.03;;
16813;SDS011;8524;57.650;11.926;2023-07-29T01:28:31;4.70;;;3.70;;
16813;SDS011;8524;57.650;11.926;2023-07-29T01:31:07;4.60;;;3.60;;
16813;SDS011;8524;57.650;11.926;2023-07-29T01:33:40;5.10;;;3.83;;
16813;SDS011;8524;57.650;11.926;2023-07-29T01:36:12;4.63;;;3.70;;
16813;SDS011;8524;57.650;11.926;2023-07-29T01:38:43;5.50;;;4.17;;
16813;SDS011;8524;57.650;11.926;2023-07-29T01:41:11;5.10;;;3.33;;
16813;SDS011;8524;57.650;11.926;2023-07-29T01:43:39;4.43;;;3.57;;
16813;SDS011;8524;57.650;11.926;2023-07-29T01:46:09;4.73;;;4.00;;
16813;SDS011;8524;57.650;11.926;2023-07-29T01:48:36;4.20;;;3.63;;
16813;SDS011;8524;57.650;11.926;2023-07-29T01:51:04;5.20;;;3.53;;
16813;SDS011;8524;57.650;11.926;2023-07-29T01:53:32;5.70;;;3.67;;
16813;SDS011;8524;57.650;11.926;2023-07-29T01:56:00;3.90;;;3.50;;
16813;SDS011;8524;57.650;11.926;2023-07-29T01:58:28;4.20;;;3.80;;
16813;SDS011;8524;57.650;11.926;2023-07-29T02:00:55;5.93;;;4.20;;
16813;SDS011;8524;57.650;11.926;2023-07-29T02:03:23;4.10;;;3.70;;
16813;SDS011;8524;57.650;11.926;2023-07-29T02:05:50;5.90;;;3.67;;
16813;SDS011;8524;57.650;11.926;2023-07-29T02:08:17;3.73;;;3.33;;
16813;SDS011;8524;57.650;11.926;2023-07-29T02:10:44;4.53;;;3.70;;
16813;SDS011;8524;57.650;11.926;2023-07-29T02:13:15;3.50;;;3.20;;
16813;SDS011;8524;57.650;11.926;2023-07-29T02:15:42;3.77;;;3.37;;
16813;SDS011;8524;57.650;11.926;2023-07-29T02:18:09;3.93;;;3.20;;
16813;SDS011;8524;57.650;11.926;2023-07-29T02:20:36;3.73;;;3.30;;
16813;SDS011;8524;57.650;11.926;2023-07-29T02:23:03;3.30;;;3.00;;
16813;SDS011;8524;57.650;11.926;2023-07-29T02:25:30;3.40;;;3.10;;
16813;SDS011;8524;57.650;11.926;2023-07-29T02:27:57;3.43;;;3.13;;
16813;SDS011;8524;57.650;11.926;2023-07-29T02:30:25;3.60;;;2.87;;
16813;SDS011;8524;57.650;11.926;2023-07-29T02:32:52;3.40;;;3.10;;
16813;SDS011;8524;57.650;11.926;2023-07-29T02:35:19;4.00;;;3.10;;
16813;SDS011;8524;57.650;11.926;2023-07-29T02:37:46;3.70;;;3.40;;
16813;SDS011;8524;57.650;11.926;2023-07-29T02:40:13;3.50;;;3.25;;
16813;SDS011;8524;57.650;11.926;2023-07-29T02:42:40;4.70;;;2.80;;
16813;SDS011;8524;57.650;11.926;2023-07-29T02:45:07;4.50;;;3.40;;
16813;SDS011;8524;57.650;11.926;2023-07-29T02:47:37;3.40;;;3.10;;
16813;SDS011;8524;57.650;11.926;2023-07-29T02:50:05;3.77;;;3.33;;
16813;SDS011;8524;57.650;11.926;2023-07-29T02:52:32;3.37;;;3.07;;
16813;SDS011;8524;57.650;11.926;2023-07-29T02:54:59;3.60;;;3.30;;
16813;SDS011;8524;57.650;11.926;2023-07-29T02:57:26;3.17;;;2.97;;
16813;SDS011;8524;57.650;11.926;2023-07-29T02:59:53;4.27;;;3.00;;
16813;SDS011;8524;57.650;11.926;2023-07-29T03:02:20;4.20;;;3.40;;
16813;SDS011;8524;57.650;11.926;2023-07-29T03:04:49;3.30;;;3.00;;
16813;SDS011;8524;57.650;11.926;2023-07-29T03:07:16;3.57;;;2.87;;
16813;SDS011;8524;57.650;11.926;2023-07-29T03:09:43;3.10;;;2.83;;
16813;SDS011;8524;57.650;11.926;2023-07-29T03:12:10;3.50;;;3.20;;
16813;SDS011;8524;57.650;11.926;2023-07-29T03:14:37;3.43;;;2.90;;
16813;SDS011;8524;57.650;11.926;2023-07-29T03:17:04;3.23;;;2.93;;
16813;SDS011;8524;57.650;11.926;2023-07-29T03:19:31;3.27;;;3.03;;
16813;SDS011;8524;57.650;11.926;2023-07-29T03:22:00;3.27;;;2.97;;
16813;SDS011;8524;57.650;11.926;2023-07-29T03:24:27;3.10;;;2.80;;
16813;SDS011;8524;57.650;11.926;2023-07-29T03:26:54;3.23;;;2.90;;
16813;SDS011;8524;57.650;11.926;2023-07-29T03:29:21;3.23;;;2.93;;
16813;SDS011;8524;57.650;11.926;2023-07-29T03:31:48;2.97;;;2.67;;
16813;SDS011;8524;57.650;11.926;2023-07-29T03:34:15;4.37;;;3.10;;
16813;SDS011;8524;57.650;11.926;2023-07-29T03:36:42;5.37;;;3.17;;
16813;SDS011;8524;57.650;11.926;2023-07-29T03:39:12;4.07;;;3.17;;
16813;SDS011;8524;57.650;11.926;2023-07-29T03:41:39;5.33;;;3.57;;
16813;SDS011;8524;57.650;11.926;2023-07-29T03:44:06;3.40;;;3.10;;
16813;SDS011;8524;57.650;11.926;2023-07-29T03:46:33;3.33;;;3.03;;
16813;SDS011;8524;57.650;11.926;2023-07-29T03:49:00;4.97;;;3.40;;
16813;SDS011;8524;57.650;11.926;2023-07-29T03:51:28;3.40;;;3.10;;
16813;SDS011;8524;57.650;11.926;2023-07-29T03:53:55;3.80;;;3.40;;
16813;SDS011;8524;57.650;11.926;2023-07-29T03:56:23;3.37;;;2.93;;
16813;SDS011;8524;57.650;11.926;2023-07-29T03:58:52;3.20;;;3.00;;
16813;SDS011;8524;57.650;11.926;2023-07-29T04:01:19;3.97;;;3.33;;
16813;SDS011;8524;57.650;11.926;2023-07-29T04:03:46;3.20;;;2.90;;
16813;SDS011;8524;57.650;11.926;2023-07-29T04:06:13;3.23;;;2.93;;
16813;SDS011;8524;57.650;11.926;2023-07-29T04:08:40;3.90;;;3.57;;
16813;SDS011;8524;57.650;11.926;2023-07-29T04:11:07;3.87;;;3.10;;
16813;SDS011;8524;57.650;11.926;2023-07-29T04:13:36;3.47;;;3.17;;
16813;SDS011;8524;57.650;11.926;2023-07-29T04:16:03;3.90;;;3.50;;
16813;SDS011;8524;57.650;11.926;2023-07-29T04:18:30;3.63;;;3.33;;
16813;SDS011;8524;57.650;11.926;2023-07-29T04:20:58;3.57;;;3.27;;
16813;SDS011;8524;57.650;11.926;2023-07-29T04:23:25;3.63;;;3.17;;
16813;SDS011;8524;57.650;11.926;2023-07-29T04:25:52;3.73;;;3.13;;
16813;SDS011;8524;57.650;11.926;2023-07-29T04:28:19;3.83;;;3.27;;
16813;SDS011;8524;57.650;11.926;2023-07-29T04:30:47;3.07;;;2.80;;
16813;SDS011;8524;57.650;11.926;2023-07-29T04:33:15;3.30;;;3.07;;
16813;SDS011;8524;57.650;11.926;2023-07-29T04:35:42;3.43;;;3.13;;
16813;SDS011;8524;57.650;11.926;2023-07-29T04:38:09;3.50;;;3.20;;
16813;SDS011;8524;57.650;11.926;2023-07-29T04:40:36;3.50;;;3.20;;
16813;SDS011;8524;57.650;11.926;2023-07-29T04:43:03;4.20;;;3.40;;
16813;SDS011;8524;57.650;11.926;2023-07-29T04:45:30;4.00;;;3.57;;
16813;SDS011;8524;57.650;11.926;2023-07-29T04:47:59;3.40;;;3.10;;
16813;SDS011;8524;57.650;11.926;2023-07-29T04:50:26;3.70;;;3.40;;
16813;SDS011;8524;57.650;11.926;2023-07-29T04:52:53;4.03;;;3.60;;
16813;SDS011;8524;57.650;11.926;2023-07-29T04:55:20;3.37;;;3.07;;
16813;SDS011;8524;57.650;11.926;2023-07-29T04:57:47;4.13;;;3.60;;
16813;SDS011;8524;57.650;11.926;2023-07-29T05:00:14;3.70;;;3.40;;
16813;SDS011;8524;57.650;11.926;2023-07-29T05:02:41;3.57;;;3.27;;
16813;SDS011;8524;57.650;11.926;2023-07-29T05:05:09;3.97;;;2.87;;
16813;SDS011;8524;57.650;11.926;2023-07-29T05:07:36;3.13;;;2.93;;
16813;SDS011;8524;57.650;11.926;2023-07-29T05:10:03;3.33;;;3.03;;
16813;SDS011;8524;57.650;11.926;2023-07-29T05:12:31;5.47;;;3.50;;
16813;SDS011;8524;57.650;11.926;2023-07-29T05:14:58;3.43;;;3.13;;
16813;SDS011;8524;57.650;11.926;2023-07-29T05:17:25;3.70;;;3.40;;
16813;SDS011;8524;57.650;11.926;2023-07-29T05:19:52;3.70;;;3.40;;
16813;SDS011;8524;57.650;11.926;2023-07-29T05:22:21;4.27;;;3.20;;
16813;SDS011;8524;57.650;11.926;2023-07-29T05:24:48;3.43;;;3.13;;
16813;SDS011;8524;57.650;11.926;2023-07-29T05:27:15;3.57;;;3.17;;
16813;SDS011;8524;57.650;11.926;2023-07-29T05:29:42;3.37;;;3.07;;
16813;SDS011;8524;57.650;11.926;2023-07-29T05:32:09;3.30;;;2.70;;
16813;SDS011;8524;57.650;11.926;2023-07-29T05:34:36;4.93;;;2.80;;
16813;SDS011;8524;57.650;11.926;2023-07-29T05:37:03;3.77;;;3.20;;
16813;SDS011;8524;57.650;11.926;2023-07-29T05:39:32;2.87;;;2.60;;
16813;SDS011;8524;57.650;11.926;2023-07-29T05:41:59;3.60;;;3.30;;
16813;SDS011;8524;57.650;11.926;2023-07-29T05:44:27;3.27;;;2.93;;
16813;SDS011;8524;57.650;11.926;2023-07-29T05:46:55;3.50;;;3.20;;
16813;SDS011;8524;57.650;11.926;2023-07-29T05:49:22;3.90;;;3.00;;
16813;SDS011;8524;57.650;11.926;2023-07-29T05:51:49;3.03;;;2.73;;
16813;SDS011;8524;57.650;11.926;2023-07-29T05:54:18;3.00;;;2.80;;
16813;SDS011;8524;57.650;11.926;2023-07-29T05:56:46;4.57;;;2.87;;
16813;SDS011;8524;57.650;11.926;2023-07-29T05:59:13;3.83;;;3.00;;
16813;SDS011;8524;57.650;11.926;2023-07-29T06:01:40;3.00;;;2.70;;
16813;SDS011;8524;57.650;11.926;2023-07-29T06:04:07;2.97;;;2.53;;
16813;SDS011;8524;57.650;11.926;2023-07-29T06:06:34;4.47;;;2.67;;
16813;SDS011;8524;57.650;11.926;2023-07-29T06:09:01;2.87;;;2.60;;
16813;SDS011;8524;57.650;11.926;2023-07-29T06:11:28;3.00;;;2.67;;
16813;SDS011;8524;57.650;11.926;2023-07-29T06:13:57;2.40;;;2.20;;
16813;SDS011;8524;57.650;11.926;2023-07-29T06:16:24;2.80;;;2.60;;
16813;SDS011;8524;57.650;11.926;2023-07-29T06:18:51;4.33;;;2.60;;
16813;SDS011;8524;57.650;11.926;2023-07-29T06:21:18;4.10;;;2.40;;
16813;SDS011;8524;57.650;11.926;2023-07-29T06:23:45;2.70;;;2.50;;
16813;SDS011;8524;57.650;11.926;2023-07-29T06:26:13;4.13;;;2.50;;
16813;SDS011;8524;57.650;11.926;2023-07-29T06:28:40;2.63;;;2.43;;
16813;SDS011;8524;57.650;11.926;2023-07-29T06:31:08;2.40;;;2.20;;
16813;SDS011;8524;57.650;11.926;2023-07-29T06:33:35;2.20;;;1.90;;
16813;SDS011;8524;57.650;11.926;2023-07-29T06:36:03;2.23;;;2.03;;
16813;SDS011;8524;57.650;11.926;2023-07-29T06:38:30;2.27;;;2.07;;
16813;SDS011;8524;57.650;11.926;2023-07-29T06:40:57;2.20;;;2.00;;
16813;SDS011;8524;57.650;11.926;2023-07-29T06:43:24;2.50;;;2.30;;
16813;SDS011;8524;57.650;11.926;2023-07-29T06:45:51;2.60;;;2.40;;
16813;SDS011;8524;57.650;11.926;2023-07-29T06:48:20;2.63;;;2.00;;
16813;SDS011;8524;57.650;11.926;2023-07-29T06:50:47;3.23;;;2.50;;
16813;SDS011;8524;57.650;11.926;2023-07-29T06:53:15;2.47;;;2.27;;
16813;SDS011;8524;57.650;11.926;2023-07-29T06:55:42;2.50;;;2.30;;
16813;SDS011;8524;57.650;11.926;2023-07-29T06:58:09;3.67;;;2.17;;
16813;SDS011;8524;57.650;11.926;2023-07-29T07:00:37;3.07;;;2.37;;
16813;SDS011;8524;57.650;11.926;2023-07-29T07:03:04;4.00;;;2.73;;
16813;SDS011;8524;57.650;11.926;2023-07-29T07:05:32;3.53;;;2.40;;
16813;SDS011;8524;57.650;11.926;2023-07-29T07:07:59;2.50;;;2.13;;
16813;SDS011;8524;57.650;11.926;2023-07-29T07:10:26;2.60;;;2.20;;
16813;SDS011;8524;57.650;11.926;2023-07-29T07:12:53;2.50;;;2.30;;
16813;SDS011;8524;57.650;11.926;2023-07-29T07:15:20;2.60;;;2.40;;
16813;SDS011;8524;57.650;11.926;2023-07-29T07:17:47;2.87;;;2.67;;
16813;SDS011;8524;57.650;11.926;2023-07-29T07:20:14;2.33;;;2.10;;
16813;SDS011;8524;57.650;11.926;2023-07-29T07:22:43;2.57;;;2.20;;
16813;SDS011;8524;57.650;11.926;2023-07-29T07:25:10;2.40;;;2.10;;
16813;SDS011;8524;57.650;11.926;2023-07-29T07:27:37;3.27;;;2.60;;
16813;SDS011;8524;57.650;11.926;2023-07-29T07:30:05;2.57;;;2.37;;
16813;SDS011;8524;57.650;11.926;2023-07-29T07:32:33;2.50;;;2.10;;
16813;SDS011;8524;57.650;11.926;2023-07-29T07:35:00;5.40;;;2.50;;
16813;SDS011;8524;57.650;11.926;2023-07-29T07:37:27;2.30;;;2.10;;
16813;SDS011;8524;57.650;11.926;2023-07-29T07:39:55;2.40;;;2.20;;
16813;SDS011;8524;57.650;11.926;2023-07-29T07:42:22;2.83;;;1.80;;
16813;SDS011;8524;57.650;11.926;2023-07-29T07:44:49;2.77;;;2.43;;
16813;SDS011;8524;57.650;11.926;2023-07-29T07:47:16;2.50;;;2.30;;
16813;SDS011;8524;57.650;11.926;2023-07-29T07:49:43;2.50;;;2.30;;
16813;SDS011;8524;57.650;11.926;2023-07-29T07:52:10;2.57;;;2.37;;
16813;SDS011;8524;57.650;11.926;2023-07-29T07:54:37;3.37;;;2.40;;
16813;SDS011;8524;57.650;11.926;2023-07-29T07:57:06;3.10;;;2.17;;
16813;SDS011;8524;57.650;11.926;2023-07-29T07:59:33;2.73;;;2.00;;
16813;SDS011;8524;57.650;11.926;2023-07-29T08:02:00;3.40;;;2.30;;
16813;SDS011;8524;57.650;11.926;2023-07-29T08:04:27;2.70;;;2.50;;
16813;SDS011;8524;57.650;11.926;2023-07-29T08:06:54;2.83;;;2.37;;
16813;SDS011;8524;57.650;11.926;2023-07-29T08:09:21;2.70;;;2.20;;
16813;SDS011;8524;57.650;11.926;2023-07-29T08:11:48;3.30;;;2.20;;
16813;SDS011;8524;57.650;11.926;2023-07-29T08:14:16;2.90;;;2.53;;
16813;SDS011;8524;57.650;11.926;2023-07-29T08:16:43;2.53;;;2.33;;
16813;SDS011;8524;57.650;11.926;2023-07-29T08:19:10;2.37;;;2.17;;
16813;SDS011;8524;57.650;11.926;2023-07-29T08:21:37;2.87;;;2.43;;
16813;SDS011;8524;57.650;11.926;2023-07-29T08:24:04;2.93;;;2.73;;
16813;SDS011;8524;57.650;11.926;2023-07-29T08:26:32;2.60;;;2.40;;
16813;SDS011;8524;57.650;11.926;2023-07-29T08:28:59;2.90;;;2.60;;
16813;SDS011;8524;57.650;11.926;2023-07-29T08:31:28;3.57;;;2.33;;
16813;SDS011;8524;57.650;11.926;2023-07-29T08:33:55;3.80;;;2.43;;
16813;SDS011;8524;57.650;11.926;2023-07-29T08:36:22;3.27;;;2.77;;
16813;SDS011;8524;57.650;11.926;2023-07-29T08:38:50;3.00;;;2.40;;
16813;SDS011;8524;57.650;11.926;2023-07-29T08:41:19;3.15;;;2.47;;
16813;SDS011;8524;57.650;11.926;2023-07-29T08:43:52;3.07;;;2.77;;
16813;SDS011;8524;57.650;11.926;2023-07-29T08:46:22;2.40;;;2.20;;
16813;SDS011;8524;57.650;11.926;2023-07-29T08:48:51;3.17;;;2.78;;
16813;SDS011;8524;57.650;11.926;2023-07-29T08:51:19;3.40;;;2.53;;
16813;SDS011;8524;57.650;11.926;2023-07-29T08:53:47;3.20;;;2.80;;
16813;SDS011;8524;57.650;11.926;2023-07-29T08:56:15;3.50;;;2.70;;
16813;SDS011;8524;57.650;11.926;2023-07-29T08:58:42;2.37;;;2.17;;
16813;SDS011;8524;57.650;11.926;2023-07-29T09:01:10;2.50;;;2.30;;
16813;SDS011;8524;57.650;11.926;2023-07-29T09:03:37;3.10;;;2.80;;
16813;SDS011;8524;57.650;11.926;2023-07-29T09:06:06;2.90;;;2.33;;
16813;SDS011;8524;57.650;11.926;2023-07-29T09:08:34;3.23;;;2.50;;
16813;SDS011;8524;57.650;11.926;2023-07-29T09:11:01;3.37;;;2.53;;
16813;SDS011;8524;57.650;11.926;2023-07-29T09:13:29;3.13;;;2.77;;
16813;SDS011;8524;57.650;11.926;2023-07-29T09:15:57;2.80;;;2.60;;
16813;SDS011;8524;57.650;11.926;2023-07-29T09:18:26;2.40;;;2.20;;
16813;SDS011;8524;57.650;11.926;2023-07-29T09:20:54;5.50;;;2.77;;
16813;SDS011;8524;57.650;11.926;2023-07-29T09:23:26;3.53;;;2.70;;
16813;SDS011;8524;57.650;11.926;2023-07-29T09:26:00;4.70;;;3.00;;
16813;SDS011;8524;57.650;11.926;2023-07-29T09:28:27;3.03;;;2.60;;
16813;SDS011;8524;57.650;11.926;2023-07-29T09:31:00;4.00;;;2.67;;
16813;SDS011;8524;57.650;11.926;2023-07-29T09:33:27;3.03;;;2.50;;
16813;SDS011;8524;57.650;11.926;2023-07-29T09:35:54;3.00;;;2.70;;
16813;SDS011;8524;57.650;11.926;2023-07-29T09:38:27;3.30;;;2.73;;
16813;SDS011;8524;57.650;11.926;2023-07-29T09:40:54;2.87;;;2.60;;
16813;SDS011;8524;57.650;11.926;2023-07-29T09:43:24;3.37;;;2.93;;
16813;SDS011;8524;57.650;11.926;2023-07-29T09:45:52;3.53;;;2.70;;
16813;SDS011;8524;57.650;11.926;2023-07-29T09:48:19;3.53;;;2.70;;
16813;SDS011;8524;57.650;11.926;2023-07-29T09:50:49;3.57;;;2.90;;
16813;SDS011;8524;57.650;11.926;2023-07-29T09:53:16;2.97;;;2.20;;
16813;SDS011;8524;57.650;11.926;2023-07-29T09:55:47;3.40;;;3.10;;
16813;SDS011;8524;57.650;11.926;2023-07-29T09:58:15;5.03;;;2.40;;
16813;SDS011;8524;57.650;11.926;2023-07-29T10:00:52;3.40;;;2.50;;
16813;SDS011;8524;57.650;11.926;2023-07-29T10:03:19;3.40;;;2.60;;
16813;SDS011;8524;57.650;11.926;2023-07-29T10:05:48;2.97;;;2.30;;
16813;SDS011;8524;57.650;11.926;2023-07-29T10:08:15;2.80;;;2.50;;
16813;SDS011;8524;57.650;11.926;2023-07-29T10:10:43;3.37;;;2.37;;
16813;SDS011;8524;57.650;11.926;2023-07-29T10:13:11;2.70;;;2.20;;
16813;SDS011;8524;57.650;11.926;2023-07-29T10:15:39;3.80;;;2.40;;
16813;SDS011;8524;57.650;11.926;2023-07-29T10:18:07;2.87;;;2.57;;
16813;SDS011;8524;57.650;11.926;2023-07-29T10:20:34;3.33;;;2.80;;
16813;SDS011;8524;57.650;11.926;2023-07-29T10:23:02;3.72;;;3.08;;
16813;SDS011;8524;57.650;11.926;2023-07-29T10:25:37;4.37;;;2.77;;
16813;SDS011;8524;57.650;11.926;2023-07-29T10:28:08;3.40;;;2.50;;
16813;SDS011;8524;57.650;11.926;2023-07-29T10:30:38;4.63;;;3.90;;
16813;SDS011;8524;57.650;11.926;2023-07-29T10:33:06;4.80;;;4.37;;
16813;SDS011;8524;57.650;11.926;2023-07-29T10:35:35;6.27;;;5.00;;
16813;SDS011;8524;57.650;11.926;2023-07-29T10:38:04;5.90;;;4.53;;
16813;SDS011;8524;57.650;11.926;2023-07-29T10:40:45;6.63;;;5.80;;
16813;SDS011;8524;57.650;11.926;2023-07-29T10:43:18;5.50;;;4.90;;
16813;SDS011;8524;57.650;11.926;2023-07-29T10:45:50;6.83;;;6.00;;
16813;SDS011;8524;57.650;11.926;2023-07-29T10:51:28;5.93;;;5.33;;
16813;SDS011;8524;57.650;11.926;2023-07-29T10:53:58;5.60;;;5.00;;
16813;SDS011;8524;57.650;11.926;2023-07-29T10:56:27;6.80;;;5.40;;
16813;SDS011;8524;57.650;11.926;2023-07-29T10:58:58;5.87;;;5.13;;
16813;SDS011;8524;57.650;11.926;2023-07-29T11:01:28;6.60;;;4.97;;
16813;SDS011;8524;57.650;11.926;2023-07-29T11:09:53;5.10;;;4.10;;
16813;SDS011;8524;57.650;11.926;2023-07-29T11:12:35;4.67;;;4.27;;
16813;SDS011;8524;57.650;11.926;2023-07-29T11:15:11;4.30;;;3.90;;
16813;SDS011;8524;57.650;11.926;2023-07-29T11:17:40;4.60;;;3.47;;
16813;SDS011;8524;57.650;11.926;2023-07-29T11:20:09;3.70;;;3.40;;
16813;SDS011;8524;57.650;11.926;2023-07-29T11:22:37;5.30;;;3.50;;
16813;SDS011;8524;57.650;11.926;2023-07-29T11:25:05;4.03;;;3.63;;
16813;SDS011;8524;57.650;11.926;2023-07-29T11:27:33;3.97;;;3.37;;
16813;SDS011;8524;57.650;11.926;2023-07-29T11:30:01;3.13;;;2.77;;
16813;SDS011;8524;57.650;11.926;2023-07-29T11:32:32;3.30;;;2.73;;
16813;SDS011;8524;57.650;11.926;2023-07-29T11:35:01;3.00;;;2.70;;
16813;SDS011;8524;57.650;11.926;2023-07-29T11:37:29;3.30;;;2.73;;
16813;SDS011;8524;57.650;11.926;2023-07-29T11:39:56;2.80;;;2.50;;
16813;SDS011;8524;57.650;11.926;2023-07-29T11:42:24;2.73;;;2.50;;
16813;SDS011;8524;57.650;11.926;2023-07-29T11:44:53;3.40;;;2.53;;
16813;SDS011;8524;57.650;11.926;2023-07-29T11:47:22;2.60;;;2.40;;
16813;SDS011;8524;57.650;11.926;2023-07-29T11:49:50;2.20;;;2.00;;
16813;SDS011;8524;57.650;11.926;2023-07-29T11:52:17;2.47;;;2.00;;
16813;SDS011;8524;57.650;11.926;2023-07-29T11:54:45;2.20;;;1.90;;
16813;SDS011;8524;57.650;11.926;2023-07-29T11:57:14;1.73;;;1.63;;
16813;SDS011;8524;57.650;11.926;2023-07-29T11:59:41;1.80;;;1.70;;
16813;SDS011;8524;57.650;11.926;2023-07-29T12:02:09;1.53;;;1.40;;
16813;SDS011;8524;57.650;11.926;2023-07-29T12:04:38;1.30;;;1.20;;
16813;SDS011;8524;57.650;11.926;2023-07-29T12:07:07;1.53;;;1.10;;
16813;SDS011;8524;57.650;11.926;2023-07-29T12:09:35;1.33;;;1.23;;
16813;SDS011;8524;57.650;11.926;2023-07-29T12:12:03;1.20;;;1.10;;
16813;SDS011;8524;57.650;11.926;2023-07-29T12:14:31;1.50;;;1.33;;
16813;SDS011;8524;57.650;11.926;2023-07-29T12:16:59;1.23;;;1.20;;
16813;SDS011;8524;57.650;11.926;2023-07-29T12:19:31;1.83;;;1.40;;
16813;SDS011;8524;57.650;11.926;2023-07-29T12:21:59;1.47;;;1.23;;
16813;SDS011;8524;57.650;11.926;2023-07-29T12:24:28;1.33;;;1.23;;
16813;SDS011;8524;57.650;11.926;2023-07-29T12:26:58;1.00;;;1.00;;
16813;SDS011;8524;57.650;11.926;2023-07-29T12:29:26;1.30;;;1.20;;
16813;SDS011;8524;57.650;11.926;2023-07-29T12:31:57;1.43;;;1.33;;
16813;SDS011;8524;57.650;11.926;2023-07-29T12:34:25;1.10;;;1.00;;
16813;SDS011;8524;57.650;11.926;2023-07-29T12:36:54;1.40;;;1.30;;
16813;SDS011;8524;57.650;11.926;2023-07-29T12:39:22;1.40;;;1.10;;
16813;SDS011;8524;57.650;11.926;2023-07-29T12:41:52;1.90;;;1.00;;
16813;SDS011;8524;57.650;11.926;2023-07-29T12:44:21;1.30;;;1.20;;
16813;SDS011;8524;57.650;11.926;2023-07-29T12:46:49;1.23;;;1.13;;
16813;SDS011;8524;57.650;11.926;2023-07-29T12:49:16;1.03;;;1.00;;
16813;SDS011;8524;57.650;11.926;2023-07-29T12:51:43;1.10;;;1.10;;
16813;SDS011;8524;57.650;11.926;2023-07-29T12:54:11;1.83;;;1.10;;
16813;SDS011;8524;57.650;11.926;2023-07-29T12:56:38;1.20;;;1.10;;
16813;SDS011;8524;57.650;11.926;2023-07-29T12:59:06;1.27;;;1.17;;
16813;SDS011;8524;57.650;11.926;2023-07-29T13:01:34;1.10;;;1.00;;
16813;SDS011;8524;57.650;11.926;2023-07-29T13:04:01;1.13;;;1.03;;
16813;SDS011;8524;57.650;11.926;2023-07-29T13:06:28;1.33;;;0.93;;
16813;SDS011;8524;57.650;11.926;2023-07-29T13:08:55;0.90;;;0.90;;
16813;SDS011;8524;57.650;11.926;2023-07-29T13:11:22;1.07;;;1.03;;
16813;SDS011;8524;57.650;11.926;2023-07-29T13:13:49;0.93;;;0.93;;
16813;SDS011;8524;57.650;11.926;2023-07-29T13:16:17;1.00;;;1.00;;
16813;SDS011;8524;57.650;11.926;2023-07-29T13:18:44;1.03;;;1.00;;
16813;SDS011;8524;57.650;11.926;2023-07-29T13:21:11;1.13;;;1.10;;
16813;SDS011;8524;57.650;11.926;2023-07-29T13:23:38;1.40;;;1.30;;
16813;SDS011;8524;57.650;11.926;2023-07-29T13:26:05;1.40;;;1.30;;
16813;SDS011;8524;57.650;11.926;2023-07-29T13:28:32;1.33;;;1.23;;
16813;SDS011;8524;57.650;11.926;2023-07-29T13:30:59;0.87;;;0.87;;
16813;SDS011;8524;57.650;11.926;2023-07-29T13:33:28;1.03;;;1.00;;
16813;SDS011;8524;57.650;11.926;2023-07-29T13:35:58;0.87;;;0.87;;
16813;SDS011;8524;57.650;11.926;2023-07-29T13:38:27;1.27;;;1.17;;
16813;SDS011;8524;57.650;11.926;2023-07-29T13:40:54;1.30;;;1.20;;
16813;SDS011;8524;57.650;11.926;2023-07-29T13:43:21;1.20;;;1.03;;
16813;SDS011;8524;57.650;11.926;2023-07-29T13:45:48;0.80;;;0.80;;
16813;SDS011;8524;57.650;11.926;2023-07-29T13:48:15;1.07;;;0.97;;
16813;SDS011;8524;57.650;11.926;2023-07-29T13:50:43;0.93;;;0.93;;
16813;SDS011;8524;57.650;11.926;2023-07-29T13:53:10;1.20;;;1.10;;
16813;SDS011;8524;57.650;11.926;2023-07-29T13:55:38;1.27;;;1.17;;
16813;SDS011;8524;57.650;11.926;2023-07-29T13:58:05;1.00;;;1.00;;
16813;SDS011;8524;57.650;11.926;2023-07-29T14:00:32;1.67;;;1.20;;
16813;SDS011;8524;57.650;11.926;2023-07-29T14:02:59;1.00;;;1.00;;
16813;SDS011;8524;57.650;11.926;2023-07-29T14:05:26;1.63;;;1.07;;
16813;SDS011;8524;57.650;11.926;2023-07-29T14:07:54;1.00;;;0.80;;
16813;SDS011;8524;57.650;11.926;2023-07-29T14:10:21;1.02;;;1.00;;
16813;SDS011;8524;57.650;11.926;2023-07-29T14:12:48;0.80;;;0.80;;
16813;SDS011;8524;57.650;11.926;2023-07-29T14:15:16;1.40;;;1.20;;
16813;SDS011;8524;57.650;11.926;2023-07-29T14:17:43;1.30;;;1.20;;
16813;SDS011;8524;57.650;11.926;2023-07-29T14:20:10;1.10;;;1.00;;
16813;SDS011;8524;57.650;11.926;2023-07-29T14:22:38;1.20;;;1.10;;
16813;SDS011;8524;57.650;11.926;2023-07-29T14:25:07;0.90;;;0.90;;
16813;SDS011;8524;57.650;11.926;2023-07-29T14:27:34;2.03;;;0.93;;
16813;SDS011;8524;57.650;11.926;2023-07-29T14:30:01;1.20;;;1.00;;
16813;SDS011;8524;57.650;11.926;2023-07-29T14:32:28;1.17;;;0.97;;
16813;SDS011;8524;57.650;11.926;2023-07-29T14:34:55;1.13;;;1.10;;
16813;SDS011;8524;57.650;11.926;2023-07-29T14:37:22;1.13;;;1.13;;
16813;SDS011;8524;57.650;11.926;2023-07-29T14:39:49;1.40;;;1.00;;
16813;SDS011;8524;57.650;11.926;2023-07-29T14:42:20;0.93;;;0.93;;
16813;SDS011;8524;57.650;11.926;2023-07-29T14:44:47;1.00;;;1.00;;
16813;SDS011;8524;57.650;11.926;2023-07-29T14:47:14;0.97;;;0.97;;
16813;SDS011;8524;57.650;11.926;2023-07-29T14:49:41;1.50;;;1.40;;
16813;SDS011;8524;57.650;11.926;2023-07-29T14:52:08;0.93;;;0.90;;
16813;SDS011;8524;57.650;11.926;2023-07-29T14:54:35;1.10;;;1.07;;
16813;SDS011;8524;57.650;11.926;2023-07-29T14:57:02;0.80;;;0.80;;
16813;SDS011;8524;57.650;11.926;2023-07-29T14:59:32;1.20;;;1.10;;
16813;SDS011;8524;57.650;11.926;2023-07-29T15:01:59;1.50;;;1.20;;